Time;durP1;ratioP1;P1;durP2;ratioP2;P2;SDS_P1;SDS_P2;PMS_P1;PMS_P2;Temp;Humidity;BMP_temperature;BMP_pressure;BME280_temperature;BME280_humidity;BME280_pressure;Samples;Min_cycle;Max_cycle;Signal;HPM_P1;HPM_P2
2022/02/14 00:02:20;;;;;;;;;;;2.60;58.70;;;0.88;54.44;95618.59;4965252;28;20003;-67
2022/02/14 00:04:45;;;;;;;;;;;2.60;58.50;;;0.85;54.50;95624.06;4956670;28;20374;-66
2022/02/14 00:07:11;;;;;;;;;;;2.60;58.60;;;0.85;54.62;95614.50;4955026;28;19929;-66
2022/02/14 00:09:37;;;;;;;;;;;2.60;58.70;;;0.82;54.46;95613.97;4949143;28;20344;-66
2022/02/14 00:12:03;;;;;;;;;;;2.60;58.90;;;0.79;55.67;95619.44;4949385;28;19969;-67
2022/02/14 00:14:28;;;;;;;;;;;2.50;59.30;;;0.77;55.82;95617.00;4947776;28;19918;-66
2022/02/14 00:16:57;;;;;;;;;;;2.60;60.00;;;0.79;55.47;95615.09;4955644;28;19914;-66
2022/02/14 00:19:22;;;;;;;;;;;2.50;59.90;;;0.72;54.72;95600.25;4967819;28;19977;-66
2022/02/14 00:21:48;;;;;;;;;;;2.50;59.60;;;0.66;54.67;95598.22;4952956;28;19930;-66
2022/02/14 00:24:14;;;;;;;;;;;2.40;59.20;;;0.68;55.79;95601.47;4967661;28;19922;-66
2022/02/14 00:26:40;;;;;;;;;;;2.40;59.30;;;0.69;55.95;95595.38;4956786;28;20072;-68
2022/02/14 00:29:06;;;;;;;;;;;2.40;59.80;;;0.66;56.34;95598.22;4955322;28;19918;-66
2022/02/14 00:31:32;;;;;;;;;;;2.40;59.70;;;0.63;56.23;95593.31;4957398;28;19918;-67
2022/02/14 00:33:57;;;;;;;;;;;2.40;59.70;;;0.60;55.97;95590.06;4954658;28;19924;-66
2022/02/14 00:36:23;;;;;;;;;;;2.30;60.00;;;0.55;55.76;95594.03;4954051;28;19922;-66
2022/02/14 00:38:49;;;;;;;;;;;2.30;60.30;;;0.54;56.17;95585.47;4969268;28;19949;-66
2022/02/14 00:41:15;;;;;;;;;;;2.30;60.00;;;0.55;55.77;95581.91;4967143;28;20305;-66
2022/02/14 00:43:40;;;;;;;;;;;2.30;59.70;;;0.54;55.41;95582.88;4960536;28;19930;-67
2022/02/14 00:46:06;;;;;;;;;;;2.30;60.10;;;0.51;56.01;95583.16;4951896;28;20337;-65
2022/02/14 00:48:32;;;;;;;;;;;2.30;60.30;;;0.50;57.19;95585.88;4967414;28;19921;-67
2022/02/14 00:50:57;;;;;;;;;;;2.20;60.30;;;0.46;56.44;95572.41;4952630;28;20341;-66
2022/02/14 00:53:23;;;;;;;;;;;2.20;60.20;;;0.36;56.10;95574.19;4954075;28;19914;-65
2022/02/14 00:55:49;;;;;;;;;;;2.10;60.60;;;0.35;55.95;95575.16;4936463;28;19926;-65
2022/02/14 00:58:15;;;;;;;;;;;2.10;60.80;;;0.36;57.61;95575.97;4951719;28;19969;-66
2022/02/14 01:00:41;;;;;;;;;;;2.10;61.00;;;0.30;56.58;95569.56;4956148;28;20267;-66
2022/02/14 01:03:07;;;;;;;;;;;2.10;61.20;;;0.29;58.17;95570.53;4961919;28;19996;-65
2022/02/14 01:05:32;;;;;;;;;;;2.10;61.40;;;0.25;57.59;95564.00;4958746;28;19928;-66
2022/02/14 01:07:58;;;;;;;;;;;2.10;61.40;;;0.21;57.53;95562.63;4953572;28;20023;-65
2022/02/14 01:10:24;;;;;;;;;;;2.00;61.60;;;0.17;57.46;95553.53;4951522;28;19953;-66
2022/02/14 01:12:49;;;;;;;;;;;2.00;61.90;;;0.18;57.84;95562.91;4938596;28;19925;-65
2022/02/14 01:15:15;;;;;;;;;;;1.90;61.90;;;0.11;57.04;95561.84;4955899;28;19931;-66
2022/02/14 01:17:41;;;;;;;;;;;1.90;62.00;;;0.10;58.59;95570.56;4961249;28;20464;-65
2022/02/14 01:20:08;;;;;;;;;;;1.90;62.20;;;0.10;57.35;95565.38;4968896;28;19924;-66
2022/02/14 01:22:34;;;;;;;;;;;1.90;62.10;;;0.08;57.34;95562.13;4967649;28;20537;-66
2022/02/14 01:25:00;;;;;;;;;;;1.90;61.90;;;0.04;56.41;95561.59;4935901;29;19922;-67
2022/02/14 01:27:26;;;;;;;;;;;1.80;61.10;;;0.01;56.33;95555.88;4943058;28;20367;-67
2022/02/14 01:29:52;;;;;;;;;;;1.80;60.80;;;0.01;56.68;95550.72;4951712;28;19930;-65
2022/02/14 01:32:22;;;;;;;;;;;1.70;60.90;;;-0.02;56.13;95547.41;4951817;28;20259;-67
2022/02/14 01:34:49;;;;;;;;;;;1.70;60.90;;;-0.07;56.67;95546.19;4929039;28;20340;-65
2022/02/14 01:37:15;;;;;;;;;;;1.70;60.80;;;-0.10;56.80;95549.88;4959526;28;19960;-65
2022/02/14 01:39:41;;;;;;;;;;;1.70;61.10;;;-0.11;57.43;95543.09;4951568;28;19918;-65
2022/02/14 01:42:08;;;;;;;;;;;1.70;61.20;;;-0.16;56.45;95534.13;4954333;28;20421;-66
2022/02/14 01:44:38;;;;;;;;;;;1.60;61.00;;;-0.17;56.44;95537.66;4950424;28;19927;-64
2022/02/14 01:47:04;;;;;;;;;;;1.70;60.80;;;-0.14;56.52;95535.59;4955774;28;19918;-65
2022/02/14 01:49:30;;;;;;;;;;;1.60;60.90;;;-0.14;56.91;95532.22;4955313;28;19926;-66
2022/02/14 01:51:55;;;;;;;;;;;1.60;60.90;;;-0.15;56.43;95526.22;4955318;28;19918;-65
2022/02/14 01:54:22;;;;;;;;;;;1.60;60.80;;;-0.18;56.94;95529.09;4957163;28;19918;-65
2022/02/14 01:56:48;;;;;;;;;;;1.70;60.70;;;-0.15;57.47;95525.41;4951198;28;20306;-64
2022/02/14 01:59:14;;;;;;;;;;;1.70;60.70;;;-0.15;56.63;95530.56;4952172;28;19973;-65
2022/02/14 02:01:39;;;;;;;;;;;1.70;60.40;;;-0.16;57.29;95509.09;4961299;28;19930;-65
2022/02/14 02:04:05;;;;;;;;;;;1.70;61.00;;;-0.15;57.39;95509.91;4953632;28;19922;-64
2022/02/14 02:06:31;;;;;;;;;;;1.70;61.30;;;-0.20;57.94;95502.56;4954035;28;19917;-66
2022/02/14 02:08:57;;;;;;;;;;;1.60;60.90;;;-0.17;57.14;95511.81;4954994;28;19989;-65
2022/02/14 02:14:07;;;;;;;;;;;1.70;60.30;;;-0.21;57.48;95511.28;4957443;28;19924;-64
2022/02/14 02:16:32;;;;;;;;;;;1.60;60.60;;;-0.22;57.06;95507.06;4942139;28;19922;-65
2022/02/14 02:18:58;;;;;;;;;;;1.60;60.80;;;-0.24;57.15;95496.00;4961453;28;19919;-65
2022/02/14 02:21:23;;;;;;;;;;;1.60;60.50;;;-0.26;56.52;95492.75;4951513;28;19929;-66
2022/02/14 02:23:49;;;;;;;;;;;1.60;60.20;;;-0.26;56.88;95491.94;4965540;28;19984;-65
2022/02/14 02:26:15;;;;;;;;;;;1.60;60.20;;;-0.29;56.75;95493.03;4935874;28;19926;-66
2022/02/14 02:28:40;;;;;;;;;;;1.60;60.00;;;-0.29;56.31;95490.44;4962506;28;20330;-65
2022/02/14 02:31:06;;;;;;;;;;;1.60;59.20;;;-0.28;56.17;95478.34;4962331;28;19924;-65
2022/02/14 02:33:32;;;;;;;;;;;1.60;59.00;;;-0.29;55.91;95482.69;4949988;28;20365;-66
2022/02/14 02:36:01;;;;;;;;;;;1.60;59.30;;;-0.29;56.62;95482.69;4966152;28;19945;-67
2022/02/14 02:38:26;;;;;;;;;;;1.60;59.40;;;-0.32;55.53;95480.38;4966006;28;19918;-67
2022/02/14 02:40:52;;;;;;;;;;;1.60;59.10;;;-0.30;56.28;95481.06;4942310;28;20020;-67
2022/02/14 02:43:18;;;;;;;;;;;1.50;58.90;;;-0.33;55.09;95471.81;4964321;28;19926;-64
2022/02/14 02:45:44;;;;;;;;;;;1.50;58.60;;;-0.33;54.55;95471.00;4940385;28;19925;-63
2022/02/14 02:48:10;;;;;;;;;;;1.50;57.60;;;-0.32;55.92;95468.28;4933965;29;19925;-64
2022/02/14 02:51:01;;;;;;;;;;;1.50;58.00;;;-0.34;54.22;95465.03;4949367;28;19923;-67
2022/02/14 02:53:21;;;;;;;;;;;1.50;57.20;;;-0.33;53.75;95468.44;4936614;29;19919;-66
2022/02/14 02:55:47;;;;;;;;;;;1.50;56.40;;;-0.33;53.10;95460.66;4949552;28;19918;-66
2022/02/14 02:58:13;;;;;;;;;;;1.50;56.10;;;-0.35;53.27;95457.41;4949525;28;19929;-64
2022/02/14 03:00:38;;;;;;;;;;;1.50;55.80;;;-0.33;53.71;95455.50;4994503;22;19984;-66
2022/02/14 03:03:04;;;;;;;;;;;1.50;55.50;;;-0.34;53.60;95453.88;4941805;28;20274;-66
2022/02/14 03:05:30;;;;;;;;;;;1.50;55.90;;;-0.33;53.22;95445.16;4967901;28;19926;-66
2022/02/14 03:07:55;;;;;;;;;;;1.50;55.50;;;-0.33;53.54;95447.75;4953835;28;19918;-65
2022/02/14 03:10:21;;;;;;;;;;;1.50;55.20;;;-0.35;52.50;95441.91;4952921;28;20017;-66
2022/02/14 03:12:47;;;;;;;;;;;1.50;54.80;;;-0.34;53.46;95451.28;4953990;28;19922;-65
2022/02/14 03:15:12;;;;;;;;;;;1.60;55.60;;;-0.35;53.85;95442.72;4969318;28;19921;-66
2022/02/14 03:17:38;;;;;;;;;;;1.50;56.00;;;-0.36;53.37;95445.44;4953252;28;20378;-66
2022/02/14 03:20:04;;;;;;;;;;;1.50;55.60;;;-0.35;53.52;95449.66;4969599;28;19918;-66
2022/02/14 03:22:30;;;;;;;;;;;1.50;55.70;;;-0.36;53.21;95440.28;4952554;28;19918;-66
2022/02/14 03:24:56;;;;;;;;;;;1.50;55.70;;;-0.37;53.01;95446.41;4970868;28;19917;-66
2022/02/14 03:27:21;;;;;;;;;;;1.50;55.20;;;-0.36;53.59;95450.63;4969056;28;19929;-66
2022/02/14 03:29:47;;;;;;;;;;;1.50;55.50;;;-0.36;53.41;95446.28;4953555;28;19922;-66
2022/02/14 03:32:13;;;;;;;;;;;1.50;55.40;;;-0.36;53.33;95440.28;4969361;28;19918;-65
2022/02/14 03:34:38;;;;;;;;;;;1.50;55.20;;;-0.34;52.43;95443.53;4968697;28;20278;-66
2022/02/14 03:37:04;;;;;;;;;;;1.50;54.80;;;-0.32;53.92;95437.28;4953707;28;19925;-66
2022/02/14 03:39:29;;;;;;;;;;;1.60;56.60;;;-0.31;53.36;95435.50;4968948;28;20318;-66
2022/02/14 03:41:55;;;;;;;;;;;1.60;55.80;;;-0.31;54.04;95440.69;4942998;28;19923;-66
2022/02/14 03:44:21;;;;;;;;;;;1.60;55.80;;;-0.33;53.33;95435.66;4970001;28;20298;-66
2022/02/14 03:46:46;;;;;;;;;;;1.60;55.30;;;-0.37;53.03;95438.66;4969411;28;19940;-66
2022/02/14 03:49:12;;;;;;;;;;;1.50;55.80;;;-0.37;52.84;95429.13;4957666;28;19945;-66
2022/02/14 03:51:38;;;;;;;;;;;1.50;55.20;;;-0.38;51.84;95417.16;4972697;28;19924;-65
2022/02/14 03:54:04;;;;;;;;;;;1.50;54.30;;;-0.39;51.89;95415.53;4957437;28;20424;-65
2022/02/14 03:56:29;;;;;;;;;;;1.50;53.60;;;-0.37;52.02;95417.97;4971857;28;19929;-66
2022/02/14 03:58:55;;;;;;;;;;;1.50;53.70;;;-0.38;52.71;95412.00;4943533;28;19922;-66
2022/02/14 04:01:21;;;;;;;;;;;1.60;53.50;;;-0.38;51.26;95400.84;4953622;28;19929;-66
2022/02/14 04:03:46;;;;;;;;;;;1.50;53.00;;;-0.40;51.46;95403.59;4979057;28;19922;-66
2022/02/14 04:06:12;;;;;;;;;;;1.40;53.30;;;-0.41;51.68;95407.13;4972412;28;19919;-66
2022/02/14 04:08:38;;;;;;;;;;;1.50;53.70;;;-0.38;52.58;95406.03;4960082;28;19926;-66
2022/02/14 04:11:03;;;;;;;;;;;1.50;54.40;;;-0.39;51.99;95406.97;4962183;28;19955;-66
2022/02/14 04:13:29;;;;;;;;;;;1.50;54.00;;;-0.42;52.18;95409.84;4992922;28;19922;-66
2022/02/14 04:15:55;;;;;;;;;;;1.50;53.60;;;-0.43;51.27;95397.88;4972477;28;19918;-66
2022/02/14 04:18:20;;;;;;;;;;;1.40;53.40;;;-0.47;52.55;95396.50;4987939;28;20374;-66
2022/02/14 04:20:46;;;;;;;;;;;1.40;54.10;;;-0.49;52.57;95393.25;4957722;28;19922;-66
2022/02/14 04:23:12;;;;;;;;;;;1.40;54.30;;;-0.54;52.49;95390.28;4953996;28;19929;-66
2022/02/14 04:25:37;;;;;;;;;;;1.30;54.70;;;-0.54;54.75;95396.25;4969007;28;19922;-68
2022/02/14 04:28:03;;;;;;;;;;;1.40;56.50;;;-0.52;54.29;95391.75;4966054;28;19922;-66
2022/02/14 04:30:29;;;;;;;;;;;1.40;57.00;;;-0.50;54.26;95389.03;4962370;28;19921;-67
2022/02/14 04:32:58;;;;;;;;;;;1.40;56.40;;;-0.52;53.41;95384.00;4965933;28;19918;-69
2022/02/14 04:35:24;;;;;;;;;;;1.40;56.00;;;-0.53;53.46;95391.91;4963344;28;19918;-68
2022/02/14 04:37:50;;;;;;;;;;;1.40;56.20;;;-0.55;54.50;95384.28;4973974;28;19945;-68
2022/02/14 04:40:15;;;;;;;;;;;1.30;56.40;;;-0.55;53.72;95380.88;4997894;28;20390;-68
2022/02/14 04:42:41;;;;;;;;;;;1.30;56.40;;;-0.64;53.45;95375.63;4985056;28;19918;-66
2022/02/14 04:45:08;;;;;;;;;;;1.20;55.80;;;-0.70;53.54;95370.97;4952684;28;19923;-67
2022/02/14 04:47:34;;;;;;;;;;;1.10;55.80;;;-0.71;53.38;95365.94;4982595;28;19925;-66
2022/02/14 04:49:59;;;;;;;;;;;1.10;55.70;;;-0.74;52.78;95367.03;4955035;28;20394;-66
2022/02/14 04:52:26;;;;;;;;;;;1.10;55.40;;;-0.73;53.37;95381.59;4999100;28;20286;-66
2022/02/14 04:54:51;;;;;;;;;;;1.10;55.50;;;-0.71;52.82;95373.69;4973065;28;20338;-66
2022/02/14 04:57:17;;;;;;;;;;;1.10;55.50;;;-0.71;53.80;95374.50;4969771;28;19922;-66
2022/02/14 04:59:43;;;;;;;;;;;1.20;55.90;;;-0.69;53.84;95376.97;4954636;28;19921;-66
2022/02/14 05:02:08;;;;;;;;;;;1.20;55.80;;;-0.74;53.44;95377.38;4967848;28;20401;-67
2022/02/14 05:04:34;;;;;;;;;;;1.10;55.60;;;-0.78;53.11;95378.59;4952770;28;21796;-67
2022/02/14 05:07:00;;;;;;;;;;;1.10;55.30;;;-0.77;53.07;95380.22;4974039;28;19922;-66
2022/02/14 05:09:25;;;;;;;;;;;1.10;55.40;;;-0.76;53.41;95381.88;4970440;28;19918;-67
2022/02/14 05:11:53;;;;;;;;;;;1.10;55.20;;;-0.75;53.46;95378.31;4964649;28;19968;-66
2022/02/14 05:14:19;;;;;;;;;;;1.10;54.70;;;-0.74;53.54;95377.38;4954425;28;19918;-67
2022/02/14 05:16:45;;;;;;;;;;;1.20;55.60;;;-0.74;53.60;95377.38;4970930;28;19929;-66
2022/02/14 05:19:10;;;;;;;;;;;1.20;55.60;;;-0.73;52.36;95366.09;4975105;28;20231;-66
2022/02/14 05:21:36;;;;;;;;;;;1.10;54.60;;;-0.74;51.64;95358.50;4971777;28;20309;-66
2022/02/14 05:24:02;;;;;;;;;;;1.10;53.20;;;-0.72;51.33;95348.84;4965844;28;19973;-66
2022/02/14 05:26:28;;;;;;;;;;;1.20;52.70;;;-0.70;50.64;95354.66;4970675;28;19918;-65
2022/02/14 05:28:55;;;;;;;;;;;1.10;52.20;;;-0.66;51.09;95361.22;4956613;28;19993;-65
2022/02/14 05:31:24;;;;;;;;;;;1.30;52.40;;;-0.63;51.52;95361.75;4970252;28;19924;-65
2022/02/14 05:33:50;;;;;;;;;;;1.40;53.10;;;-0.59;51.62;95362.28;4985325;28;19918;-65
2022/02/14 05:36:18;;;;;;;;;;;1.40;53.10;;;-0.58;51.85;95360.50;4969351;28;20313;-68
2022/02/14 05:38:43;;;;;;;;;;;1.40;53.20;;;-0.53;52.03;95360.91;4954956;28;20352;-67
2022/02/14 05:41:09;;;;;;;;;;;1.40;52.90;;;-0.51;51.86;95362.38;4984077;28;19926;-68
2022/02/14 05:43:35;;;;;;;;;;;1.50;53.20;;;-0.48;51.57;95369.03;4989063;28;20285;-69
2022/02/14 05:46:00;;;;;;;;;;;1.50;52.80;;;-0.44;51.28;95370.41;4970313;28;20013;-66
2022/02/14 05:48:26;;;;;;;;;;;1.60;52.70;;;-0.40;51.82;95366.59;4949103;28;19918;-68
2022/02/14 05:50:55;;;;;;;;;;;1.60;52.60;;;-0.39;50.71;95365.66;4954206;28;20358;-68
2022/02/14 05:53:21;;;;;;;;;;;1.70;51.60;;;-0.36;50.75;95362.78;4959390;28;19924;-68
2022/02/14 05:55:47;;;;;;;;;;;1.60;51.60;;;-0.34;50.64;95366.03;4988448;28;20615;-65
2022/02/14 05:58:13;;;;;;;;;;;1.60;51.30;;;-0.33;50.37;95367.66;4953738;28;19964;-65
2022/02/14 06:00:38;;;;;;;;;;;1.60;50.80;;;-0.30;50.66;95367.38;4963995;28;19928;-66
2022/02/14 06:03:04;;;;;;;;;;;1.70;51.40;;;-0.27;51.57;95361.91;4984027;28;20060;-66
2022/02/14 06:05:30;;;;;;;;;;;1.80;52.00;;;-0.23;51.47;95358.09;4950097;28;19926;-67
2022/02/14 06:07:56;;;;;;;;;;;1.80;52.10;;;-0.19;50.40;95364.63;4961864;28;20446;-65
2022/02/14 06:10:22;;;;;;;;;;;1.80;51.10;;;-0.16;50.74;95361.75;4967869;28;19914;-66
2022/02/14 06:12:47;;;;;;;;;;;1.90;51.30;;;-0.13;51.40;95366.66;4952858;28;19979;-66
2022/02/14 06:15:13;;;;;;;;;;;2.00;51.70;;;-0.09;51.69;95368.00;4956299;28;19924;-65
2022/02/14 06:17:39;;;;;;;;;;;2.00;52.30;;;-0.03;51.74;95364.00;4951913;28;20400;-65
2022/02/14 06:20:05;;;;;;;;;;;2.10;52.50;;;0.02;51.36;95363.63;4952360;28;19918;-65
2022/02/14 06:22:31;;;;;;;;;;;2.10;51.70;;;0.05;50.21;95363.31;4969976;28;20408;-65
2022/02/14 06:24:57;;;;;;;;;;;2.20;50.80;;;0.07;50.14;95369.16;4969187;28;19917;-64
2022/02/14 06:27:22;;;;;;;;;;;2.20;50.30;;;0.11;51.09;95360.16;4958881;28;20313;-65
2022/02/14 06:29:49;;;;;;;;;;;2.20;51.70;;;0.14;51.80;95370.22;4968618;28;19998;-67
2022/02/14 06:32:15;;;;;;;;;;;2.20;52.20;;;0.15;52.13;95356.31;4968308;28;19990;-65
2022/02/14 06:34:48;;;;;;;;;;;2.20;52.20;;;0.17;52.13;95364.75;5076329;27;19974;-65
2022/02/14 06:37:13;;;;;;;;;;;2.30;52.60;;;0.20;51.85;95364.47;5050575;28;20002;-64
2022/02/14 06:39:39;;;;;;;;;;;2.40;52.30;;;0.23;51.44;95364.19;5043808;28;19927;-66
2022/02/14 06:42:05;;;;;;;;;;;2.40;51.40;;;0.26;51.02;95361.31;5044474;28;19943;-64
2022/02/14 06:44:30;;;;;;;;;;;2.40;51.20;;;0.29;51.45;95366.22;5026000;28;20273;-64
2022/02/14 06:46:56;;;;;;;;;;;2.40;51.60;;;0.31;52.27;95361.69;5044280;28;20321;-66
2022/02/14 06:49:22;;;;;;;;;;;2.40;52.40;;;0.34;52.61;95358.81;5011453;28;19928;-64
2022/02/14 06:51:48;;;;;;;;;;;2.50;53.40;;;0.38;53.06;95365.31;5043780;28;19929;-65
2022/02/14 06:54:13;;;;;;;;;;;2.60;53.20;;;0.44;52.82;95361.34;5043520;28;20285;-65
2022/02/14 06:56:39;;;;;;;;;;;2.70;53.10;;;0.48;53.33;95367.88;5026481;28;19931;-64
2022/02/14 06:59:05;;;;;;;;;;;2.70;53.40;;;0.53;53.24;95368.25;5045721;28;20388;-64
2022/02/14 07:01:30;;;;;;;;;;;2.80;53.00;;;0.57;52.82;95367.00;5043794;28;19971;-68
2022/02/14 07:03:56;;;;;;;;;;;2.90;53.30;;;0.62;52.53;95369.97;5061018;28;19921;-65
2022/02/14 07:06:22;;;;;;;;;;;2.90;53.00;;;0.67;53.48;95369.50;5026140;28;20377;-65
2022/02/14 07:08:48;;;;;;;;;;;3.00;52.90;;;0.73;53.17;95371.53;5026092;28;19925;-65
2022/02/14 07:11:14;;;;;;;;;;;3.10;53.30;;;0.81;52.71;95369.03;5043909;28;19998;-65
2022/02/14 07:13:39;;;;;;;;;;;3.10;53.00;;;0.88;52.38;95362.28;5043240;28;19928;-64
2022/02/14 07:16:05;;;;;;;;;;;3.30;51.80;;;0.95;52.06;95365.94;5041502;28;19944;-65
2022/02/14 07:18:31;;;;;;;;;;;3.40;52.00;;;1.07;52.11;95364.72;5023436;28;19921;-65
2022/02/14 07:20:57;;;;;;;;;;;3.50;52.40;;;1.16;51.83;95356.09;5043025;28;20097;-65
2022/02/14 07:23:22;;;;;;;;;;;3.70;50.50;;;1.29;51.10;95357.47;5043351;28;20373;-63
2022/02/14 07:25:48;;;;;;;;;;;3.90;50.00;;;1.38;50.71;95354.00;5009753;28;20007;-64
2022/02/14 07:28:14;;;;;;;;;;;4.00;48.80;;;1.49;50.65;95354.53;5025912;28;19921;-65
2022/02/14 07:30:39;;;;;;;;;;;4.10;49.10;;;1.62;50.36;95353.34;5026165;28;19932;-64
2022/02/14 07:33:05;;;;;;;;;;;4.40;48.40;;;1.77;50.43;95351.78;5026387;28;19986;-65
2022/02/14 07:35:31;;;;;;;;;;;4.60;48.00;;;1.91;49.86;95353.84;5012346;28;19925;-65
2022/02/14 07:37:57;;;;;;;;;;;4.70;47.70;;;2.00;50.57;95355.50;5025153;28;20012;-66
2022/02/14 07:40:25;;;;;;;;;;;4.70;47.70;;;2.12;50.12;95350.88;5004161;28;20270;-64
2022/02/14 07:42:50;;;;;;;;;;;5.00;47.50;;;2.25;49.86;95346.03;5023139;28;19981;-64
2022/02/14 07:45:16;;;;;;;;;;;5.10;47.20;;;2.42;49.94;95341.72;5013180;28;19929;-66
2022/02/14 07:47:42;;;;;;;;;;;5.50;46.40;;;2.59;49.25;95346.00;4971899;28;19921;-65
2022/02/14 07:50:11;;;;;;;;;;;5.80;45.50;;;2.74;48.57;95351.41;5007514;28;20364;-66
2022/02/14 07:52:36;;;;;;;;;;;5.70;44.90;;;2.86;47.42;95339.72;4993716;28;19935;-66
2022/02/14 07:55:03;;;;;;;;;;;6.00;43.50;;;3.01;47.42;95335.53;4991760;28;19922;-67
2022/02/14 07:57:30;;;;;;;;;;;6.40;43.20;;;3.15;46.72;95328.06;4992041;28;20007;-64
2022/02/14 07:59:55;;;;;;;;;;;6.30;42.50;;;3.24;46.26;95332.31;5010559;28;19965;-64
2022/02/14 08:02:21;;;;;;;;;;;6.10;42.30;;;3.32;46.46;95333.09;5025773;28;20341;-66
2022/02/14 08:04:47;;;;;;;;;;;6.10;42.20;;;3.40;45.62;95334.91;5028766;28;19921;-64
2022/02/14 08:07:13;;;;;;;;;;;6.40;41.40;;;3.55;46.00;95335.84;5029636;28;19921;-64
2022/02/14 08:09:39;;;;;;;;;;;6.70;41.20;;;3.70;45.68;95328.19;5028934;28;19925;-64
2022/02/14 08:12:07;;;;;;;;;;;7.30;39.80;;;3.90;45.00;95323.44;5013122;28;19921;-66
2022/02/14 08:14:35;;;;;;;;;;;7.40;39.00;;;4.05;44.60;95310.53;4996045;28;19925;-66
2022/02/14 08:17:03;;;;;;;;;;;7.60;38.40;;;4.20;43.64;95316.66;5029330;28;19921;-66
2022/02/14 08:19:29;;;;;;;;;;;7.50;38.00;;;4.35;43.58;95328.00;5011751;28;19931;-66
2022/02/14 08:21:54;;;;;;;;;;;7.60;38.00;;;4.48;43.65;95317.84;4996780;28;20281;-66
2022/02/14 08:24:20;;;;;;;;;;;7.80;38.10;;;4.67;45.03;95316.59;5028279;28;19985;-65
2022/02/14 08:26:46;;;;;;;;;;;8.50;37.90;;;4.90;43.81;95319.25;4996181;28;19921;-64
2022/02/14 08:29:11;;;;;;;;;;;9.00;36.20;;;5.15;44.06;95317.28;5029891;28;19921;-65
2022/02/14 08:31:37;;;;;;;;;;;9.40;36.30;;;5.35;44.13;95326.25;5001814;28;19921;-64
2022/02/14 08:34:03;;;;;;;;;;;9.20;36.50;;;5.52;43.95;95313.88;5007319;28;19925;-66
2022/02/14 08:36:29;;;;;;;;;;;9.20;36.40;;;5.73;43.37;95313.19;5035858;28;20015;-65
2022/02/14 08:38:55;;;;;;;;;;;9.70;35.80;;;5.92;43.49;95311.91;5031302;28;19940;-65
2022/02/14 08:41:21;;;;;;;;;;;9.70;35.80;;;6.03;43.15;95309.63;5028632;28;19940;-65
2022/02/14 08:43:48;;;;;;;;;;;9.40;36.30;;;6.10;43.03;95309.72;5028902;28;19920;-66
2022/02/14 08:46:15;;;;;;;;;;;9.20;36.60;;;6.20;42.46;95305.06;5011917;28;19921;-65
2022/02/14 08:48:41;;;;;;;;;;;9.70;35.70;;;6.42;42.03;95316.38;5027415;28;19975;-65
2022/02/14 08:51:06;;;;;;;;;;;10.50;33.60;;;6.71;41.09;95316.31;5032687;28;19959;-65
2022/02/14 08:53:35;;;;;;;;;;;11.10;32.60;;;7.09;40.85;95310.88;5031353;28;19933;-65
2022/02/14 08:56:05;;;;;;;;;;;11.90;32.30;;;7.49;39.62;95306.03;5028894;28;20397;-65
2022/02/14 08:58:31;;;;;;;;;;;12.50;30.70;;;7.66;39.31;95296.88;5028550;28;20022;-66
2022/02/14 09:03:26;;;;;;;;;;;11.40;31.40;;;7.78;39.79;95300.59;4984512;28;19984;-63
2022/02/14 09:05:52;;;;;;;;;;;11.00;32.40;;;7.71;40.44;95299.75;4965935;28;20325;-63
2022/02/14 09:08:17;;;;;;;;;;;10.60;33.90;;;7.78;41.35;95297.97;4956445;28;19926;-65
2022/02/14 09:10:43;;;;;;;;;;;11.90;33.20;;;7.98;40.05;95295.50;4990585;28;19934;-65
2022/02/14 09:13:09;;;;;;;;;;;12.80;30.20;;;8.33;39.42;95296.28;4956962;28;19925;-65
2022/02/14 09:15:34;;;;;;;;;;;13.60;29.00;;;8.70;38.89;95292.44;4985791;28;19940;-64
2022/02/14 09:18:00;;;;;;;;;;;14.30;27.70;;;9.07;37.13;95291.13;4996188;28;19922;-64
2022/02/14 09:20:26;;;;;;;;;;;14.70;26.40;;;9.47;37.96;95288.53;4991053;28;20381;-64
2022/02/14 09:22:52;;;;;;;;;;;15.30;26.00;;;9.83;38.12;95280.25;4989821;28;19917;-63
2022/02/14 09:25:17;;;;;;;;;;;15.80;25.80;;;10.21;36.86;95280.41;4990547;28;20294;-65
2022/02/14 09:27:43;;;;;;;;;;;16.40;25.00;;;10.63;36.66;95275.59;4989977;28;19918;-64
2022/02/14 09:30:09;;;;;;;;;;;17.10;24.60;;;11.01;37.54;95279.03;4973155;28;19917;-63
2022/02/14 09:32:35;;;;;;;;;;;17.50;24.40;;;11.35;36.64;95279.66;4972283;28;19932;-65
2022/02/14 09:35:01;;;;;;;;;;;18.10;23.70;;;11.69;36.48;95267.81;4972067;28;19926;-65
2022/02/14 09:37:26;;;;;;;;;;;18.60;23.30;;;12.05;36.11;95269.75;4990155;28;19922;-64
2022/02/14 09:39:52;;;;;;;;;;;19.20;22.70;;;12.40;35.08;95261.25;4972256;28;19922;-64
2022/02/14 09:42:18;;;;;;;;;;;19.80;21.80;;;12.68;35.24;95266.81;4939872;28;19922;-65
2022/02/14 09:44:45;;;;;;;;;;;20.60;21.30;;;13.00;34.44;95263.97;4989387;28;19941;-63
2022/02/14 09:47:11;;;;;;;;;;;21.10;20.00;;;13.30;34.71;95266.59;4971689;28;20419;-65
2022/02/14 09:49:39;;;;;;;;;;;21.90;19.60;;;13.63;34.89;95260.81;4972508;28;19926;-63
2022/02/14 09:52:05;;;;;;;;;;;22.70;20.40;;;13.99;35.40;95260.59;4972108;28;19957;-65
2022/02/14 09:54:30;;;;;;;;;;;23.50;20.00;;;14.38;34.70;95258.25;4989007;28;20016;-65
2022/02/14 09:56:56;;;;;;;;;;;24.20;19.40;;;14.90;34.10;95268.84;4989656;28;19922;-66
2022/02/14 09:59:21;;;;;;;;;;;25.10;17.90;;;15.39;33.86;95254.13;4972327;28;19933;-64
2022/02/14 10:01:48;;;;;;;;;;;24.60;18.00;;;15.63;34.58;95264.63;4956195;28;20124;-65
2022/02/14 10:04:13;;;;;;;;;;;23.20;18.90;;;15.73;33.47;95268.22;4973673;28;19925;-64
2022/02/14 10:06:40;;;;;;;;;;;22.60;20.10;;;15.88;34.09;95252.56;4991706;28;19922;-64
2022/02/14 10:09:10;;;;;;;;;;;22.10;20.80;;;15.77;33.37;95256.09;4993143;28;19929;-65
2022/02/14 10:11:37;;;;;;;;;;;20.70;22.30;;;15.54;33.59;95267.63;4952768;28;19922;-66
2022/02/14 10:14:17;;;;;;;;;;;19.80;23.60;;;15.19;35.72;95259.88;4971778;28;19972;-64
2022/02/14 10:17:01;;;;;;;;;;;19.20;24.30;;;14.89;35.10;95264.59;4971672;28;20057;-64
2022/02/14 10:19:28;;;;;;;;;;;18.50;25.30;;;14.56;34.07;95271.38;4983519;28;19922;-64
2022/02/14 10:21:54;;;;;;;;;;;17.60;25.30;;;14.27;34.33;95277.63;4972200;28;20008;-64
2022/02/14 10:24:20;;;;;;;;;;;17.00;25.50;;;13.93;34.16;95273.94;4970756;28;19930;-63
2022/02/14 10:26:51;;;;;;;;;;;16.40;26.10;;;13.58;34.97;95269.44;4989229;28;20440;-63
2022/02/14 10:29:32;;;;;;;;;;;16.10;27.50;;;13.25;36.81;95264.66;4971253;28;19922;-63
2022/02/14 10:32:08;;;;;;;;;;;15.60;29.30;;;12.96;36.61;95266.25;4990823;28;19921;-65
2022/02/14 10:34:40;;;;;;;;;;;15.40;30.10;;;12.71;37.84;95276.94;4960648;28;20573;-62
2022/02/14 10:37:06;;;;;;;;;;;15.20;31.60;;;12.48;37.69;95271.53;4969874;28;19929;-62
2022/02/14 10:39:32;;;;;;;;;;;14.70;31.80;;;12.29;37.23;95265.44;4989306;28;20028;-64
2022/02/14 10:42:02;;;;;;;;;;;14.80;30.70;;;12.13;37.51;95271.28;4988800;28;19940;-65
2022/02/14 10:47:21;;;;;;;;;;;14.50;31.60;;;11.82;38.55;95251.94;4987601;28;19933;-65
2022/02/14 10:49:58;;;;;;;;;;;14.60;31.80;;;11.78;38.83;95245.50;4971683;28;19980;-67
2022/02/14 10:52:24;;;;;;;;;;;14.80;32.20;;;11.93;39.08;95237.22;4982190;28;19922;-65
2022/02/14 10:54:49;;;;;;;;;;;17.40;30.00;;;12.30;39.09;95237.25;4987026;28;19932;-64
2022/02/14 10:57:26;;;;;;;;;;;18.10;28.40;;;12.55;38.72;95244.03;4955102;28;19926;-66
2022/02/14 11:00:00;;;;;;;;;;;18.10;28.30;;;12.79;38.24;95229.13;4969171;28;19922;-64
2022/02/14 11:02:26;;;;;;;;;;;18.00;28.00;;;12.96;38.41;95228.50;4970633;28;19921;-66
2022/02/14 11:04:52;;;;;;;;;;;17.70;28.50;;;13.11;37.86;95228.84;4979940;28;19933;-66
2022/02/14 11:07:18;;;;;;;;;;;17.90;28.70;;;13.34;38.21;95226.31;4977344;28;19980;-64
2022/02/14 11:09:44;;;;;;;;;;;19.10;27.00;;;13.62;37.15;95223.03;4952384;28;20353;-65
2022/02/14 11:12:11;;;;;;;;;;;19.20;26.80;;;13.77;38.01;95209.34;4954232;28;19928;-67
2022/02/14 11:14:36;;;;;;;;;;;18.70;27.50;;;13.88;38.02;95211.19;4970426;28;19929;-67
2022/02/14 11:17:02;;;;;;;;;;;19.60;26.90;;;14.29;36.55;95218.16;4954989;28;20473;-67
2022/02/14 11:19:28;;;;;;;;;;;21.30;24.50;;;14.86;36.99;95218.22;4988848;28;19965;-67
2022/02/14 11:21:54;;;;;;;;;;;22.60;23.50;;;15.22;36.33;95205.63;4961696;28;19922;-67
2022/02/14 11:24:24;;;;;;;;;;;22.10;23.30;;;15.56;34.74;95195.81;4957524;28;20389;-70
2022/02/14 11:26:57;;;;;;;;;;;22.20;22.80;;;15.84;34.86;95193.09;4959113;28;20006;-66
2022/02/14 11:29:36;;;;;;;;;;;22.20;23.20;;;16.10;34.75;95193.44;4971824;28;20016;-69
2022/02/14 11:32:18;;;;;;;;;;;22.20;22.90;;;16.22;35.07;95184.31;4975654;28;20378;-68